createdAt,value
2023-03-13T00:01:10.219Z,100115.62
2023-03-13T00:06:16.780Z,100106.65
2023-03-13T00:11:22.325Z,100102.45
2023-03-13T00:16:29.692Z,100102.48
2023-03-13T00:21:37.600Z,100100.24
2023-03-13T00:26:43.081Z,100102.29
2023-03-13T00:31:48.656Z,100100.36
2023-03-13T00:36:56.157Z,100101.35
2023-03-13T00:42:04.024Z,100104.73
2023-03-13T00:47:09.696Z,100108.15
2023-03-13T00:52:15.279Z,100109.86
2023-03-13T00:57:20.739Z,100112.98
2023-03-13T01:02:26.379Z,100112.94
2023-03-13T01:07:32.086Z,100100.89
2023-03-13T01:12:37.936Z,100092.58
2023-03-13T01:17:45.156Z,100078.58
2023-03-13T01:22:54.410Z,100070.23
2023-03-13T01:27:59.917Z,100063.25
2023-03-13T01:33:06.916Z,100059.16
2023-03-13T01:38:12.558Z,100049.92
2023-03-13T01:43:26.936Z,100046.17
2023-03-13T01:48:42.051Z,100030.11
2023-03-13T01:53:50.070Z,100017.50
2023-03-13T01:58:59.353Z,100012.27
2023-03-13T02:04:06.998Z,100010.40
2023-03-13T02:09:16.013Z,100008.35
2023-03-13T02:14:25.696Z,100017.75
2023-03-13T02:19:37.754Z,100009.02
2023-03-13T02:24:51.512Z,100011.58
2023-03-13T02:29:57.645Z,100009.69
2023-03-13T02:35:10.201Z,100002.71
2023-03-13T02:40:21.350Z,100007.21
2023-03-13T02:45:25.783Z,100003.84
2023-03-13T02:50:32.700Z,99998.20
2023-03-13T02:55:41.249Z,100007.10
2023-03-13T03:00:47.946Z,100001.46
2023-03-13T03:05:55.536Z,100006.27
2023-03-13T03:11:01.588Z,100007.64
2023-03-13T03:16:12.739Z,100007.65
2023-03-13T03:21:16.769Z,100005.44
2023-03-13T03:26:22.563Z,99999.98
2023-03-13T03:31:30.604Z,99999.33
2023-03-13T03:36:36.283Z,99995.42
2023-03-13T03:41:41.612Z,99993.73
2023-03-13T03:46:47.382Z,99988.42
2023-03-13T03:51:53.664Z,99991.50
2023-03-13T03:57:04.110Z,99977.27
2023-03-13T04:02:10.210Z,99967.32
2023-03-13T04:07:15.952Z,99956.88
2023-03-13T04:12:22.553Z,99953.14
2023-03-13T04:17:31.057Z,99951.61
2023-03-13T04:22:37.125Z,99952.30
2023-03-13T04:27:43.242Z,99947.85
2023-03-13T04:32:51.146Z,99945.63
2023-03-13T04:38:06.824Z,99937.22
2023-03-13T04:43:41.789Z,99938.25
2023-03-13T04:49:08.930Z,99934.98
2023-03-13T04:54:34.884Z,99924.01
2023-03-13T04:59:53.374Z,99926.42
2023-03-13T05:05:18.105Z,99920.77
2023-03-13T05:10:48.918Z,99914.61
2023-03-13T05:16:08.046Z,99911.86
2023-03-13T05:21:32.491Z,99905.86
2023-03-13T05:27:04.286Z,99903.81
2023-03-13T05:32:15.937Z,99904.16
2023-03-13T05:37:45.607Z,99896.44
2023-03-13T05:43:09.395Z,99901.59
2023-03-13T05:48:42.926Z,99905.02
2023-03-13T05:54:15.660Z,99912.20
2023-03-13T05:59:40.688Z,99917.19
2023-03-13T06:05:06.700Z,99915.81
2023-03-13T06:10:13.723Z,99900.34
2023-03-13T06:15:19.731Z,99895.70
2023-03-13T06:20:34.094Z,99897.75
2023-03-13T06:25:39.527Z,99892.95
2023-03-13T06:30:45.422Z,99891.91
2023-03-13T06:35:56.697Z,99890.17
2023-03-13T06:41:02.334Z,99893.60
2023-03-13T06:46:11.288Z,99890.49
2023-03-13T06:51:18.726Z,99890.64
2023-03-13T06:56:24.790Z,99879.27
2023-03-13T07:01:30.637Z,99877.39
2023-03-13T07:06:36.128Z,99874.77
2023-03-13T07:11:41.812Z,99870.61
2023-03-13T07:16:47.577Z,99869.90
2023-03-13T07:21:53.403Z,99867.33
2023-03-13T07:27:07.220Z,99872.76
2023-03-13T07:32:13.342Z,99870.11
2023-03-13T07:37:18.728Z,99871.76
2023-03-13T07:42:24.362Z,99860.04
2023-03-13T07:47:31.050Z,99854.16
2023-03-13T07:52:36.832Z,99854.44
2023-03-13T07:57:42.267Z,99845.60
2023-03-13T08:02:47.835Z,99831.90
2023-03-13T08:07:53.480Z,99831.02
2023-03-13T08:12:59.027Z,99825.98
2023-03-13T08:18:04.818Z,99823.12
2023-03-13T08:23:10.328Z,99822.39
2023-03-13T08:28:15.744Z,99821.66
2023-03-13T08:33:21.236Z,99819.44
2023-03-13T08:38:26.699Z,99831.33
2023-03-13T08:43:32.135Z,99819.79
2023-03-13T08:48:37.887Z,99817.08
2023-03-13T08:53:44.563Z,99808.35
2023-03-13T08:58:53.512Z,99796.58
2023-03-13T09:04:03.419Z,99775.42
2023-03-13T09:09:10.918Z,99761.29
2023-03-13T09:14:16.414Z,99749.45
2023-03-13T09:19:21.906Z,99742.63
2023-03-13T09:24:27.633Z,99727.70
2023-03-13T09:29:33.378Z,99721.38
2023-03-13T09:34:39.667Z,99711.36
2023-03-13T09:39:45.217Z,99707.16
2023-03-13T09:44:55.801Z,99696.52
2023-03-13T09:50:10.225Z,99689.27
2023-03-13T09:55:23.081Z,99683.43
2023-03-13T10:00:34.358Z,99672.40
2023-03-13T10:05:46.406Z,99660.72
2023-03-13T10:10:57.652Z,99653.27
2023-03-13T10:16:04.819Z,99647.57
2023-03-13T10:21:17.485Z,99640.58
2023-03-13T10:26:27.452Z,99636.52
2023-03-13T10:31:36.465Z,99635.23
2023-03-13T10:36:45.313Z,99631.15
2023-03-13T10:41:56.495Z,99631.83
2023-03-13T10:47:02.598Z,99628.58
2023-03-13T10:52:33.068Z,99615.33
2023-03-13T10:57:41.193Z,99609.56
2023-03-13T11:02:46.906Z,99602.05
2023-03-13T11:07:53.598Z,99586.95
2023-03-13T11:12:59.765Z,99579.38
2023-03-13T11:18:15.795Z,99565.08
2023-03-13T11:23:27.778Z,99561.95
2023-03-13T11:28:45.986Z,99548.02
2023-03-13T11:33:59.736Z,99532.60
2023-03-13T11:39:19.815Z,99518.77
2023-03-13T11:44:31.818Z,99496.90
2023-03-13T11:49:58.002Z,99488.59
2023-03-13T11:55:23.851Z,99471.53
2023-03-13T12:00:36.850Z,99467.39
2023-03-13T12:05:51.670Z,99463.10
2023-03-13T12:11:09.638Z,99460.38
2023-03-13T12:16:21.199Z,99460.20
2023-03-13T12:21:32.515Z,99453.08
2023-03-13T12:26:39.393Z,99452.36
2023-03-13T12:31:50.785Z,99449.35
2023-03-13T12:37:06.819Z,99439.48
2023-03-13T12:42:23.694Z,99435.95
2023-03-13T12:47:34.373Z,99431.80
2023-03-13T12:53:21.028Z,99428.52
2023-03-13T12:58:44.348Z,99431.47
2023-03-13T13:03:56.772Z,99417.47
2023-03-13T13:09:15.544Z,99406.18
2023-03-13T13:14:52.830Z,99399.77
2023-03-13T13:19:58.657Z,99398.86
2023-03-13T13:25:28.774Z,99399.08
2023-03-13T13:30:35.244Z,99391.55
2023-03-13T13:35:41.162Z,99379.80
2023-03-13T13:41:00.649Z,99372.30
2023-03-13T13:46:18.798Z,99360.70
2023-03-13T13:51:28.763Z,99351.22
2023-03-13T13:56:52.269Z,99356.37
2023-03-13T14:02:25.115Z,99357.70
2023-03-13T14:07:42.462Z,99359.73
2023-03-13T14:12:52.184Z,99346.50
2023-03-13T14:18:01.052Z,99328.21
2023-03-13T14:23:08.416Z,99320.45
2023-03-13T14:28:23.099Z,99319.04
2023-03-13T14:33:29.058Z,99312.20
2023-03-13T14:38:35.193Z,99300.91
2023-03-13T14:43:44.016Z,99286.70
2023-03-13T14:48:49.741Z,99271.18
2023-03-13T14:54:00.458Z,99263.88
2023-03-13T14:59:14.928Z,99241.79
2023-03-13T15:04:54.411Z,99237.85
2023-03-13T15:10:00.833Z,99242.05
2023-03-13T15:15:10.299Z,99237.28
2023-03-13T15:20:19.058Z,99242.88
2023-03-13T15:25:24.753Z,99241.19
2023-03-13T15:30:31.065Z,99235.38
2023-03-13T15:35:36.654Z,99226.86
2023-03-13T15:40:42.701Z,99223.51
2023-03-13T15:45:53.699Z,99220.08
2023-03-13T15:51:01.535Z,99220.50
2023-03-13T15:56:14.495Z,99218.98
2023-03-13T16:01:22.526Z,99219.61
2023-03-13T16:06:31.600Z,99224.05
2023-03-13T16:11:37.327Z,99220.75
2023-03-13T16:16:43.014Z,99217.71
2023-03-13T16:21:49.666Z,99211.56
2023-03-13T16:26:55.070Z,99216.56
2023-03-13T16:32:00.957Z,99215.73
2023-03-13T16:37:16.273Z,99215.30
2023-03-13T16:42:22.252Z,99217.19
2023-03-13T16:47:29.271Z,99220.06
2023-03-13T16:52:35.099Z,99219.09
2023-03-13T16:57:40.610Z,99220.56
2023-03-13T17:02:46.627Z,99224.66
2023-03-13T17:07:53.194Z,99223.70
2023-03-13T17:12:58.994Z,99232.50
2023-03-13T17:18:10.333Z,99230.80
2023-03-13T17:23:16.206Z,99227.60
2023-03-13T17:28:21.989Z,99229.17
2023-03-13T17:33:27.866Z,99227.54
2023-03-13T17:38:33.560Z,99229.33
2023-03-13T17:43:39.387Z,99225.08
2023-03-13T17:48:45.429Z,99225.30
2023-03-13T17:53:52.132Z,99222.22
2023-03-13T17:58:59.684Z,99226.14
2023-03-13T18:04:05.239Z,99220.27
2023-03-13T18:09:15.855Z,99215.25
2023-03-13T18:14:22.307Z,99214.84
2023-03-13T18:19:28.121Z,99212.02
2023-03-13T18:24:33.815Z,99208.89
2023-03-13T18:29:39.546Z,99205.42
2023-03-13T18:34:45.513Z,99206.09
2023-03-13T18:39:51.382Z,99212.70
2023-03-13T18:44:56.856Z,99213.41
2023-03-13T18:50:02.790Z,99209.73
2023-03-13T18:55:09.864Z,99203.81
2023-03-13T19:00:20.808Z,99200.01
2023-03-13T19:05:26.420Z,99192.59
2023-03-13T19:10:32.907Z,99189.00
2023-03-13T19:15:38.986Z,99187.39
2023-03-13T19:20:44.575Z,99178.91
2023-03-13T19:25:50.181Z,99166.80
2023-03-13T19:30:55.609Z,99172.27
2023-03-13T19:36:01.304Z,99183.97
2023-03-13T19:41:07.294Z,99182.04
2023-03-13T19:46:22.703Z,99196.48
2023-03-13T19:51:29.545Z,99199.91
2023-03-13T19:56:36.513Z,99199.27
2023-03-13T20:01:42.704Z,99197.44
2023-03-13T20:06:48.218Z,99192.54
2023-03-13T20:11:53.952Z,99193.34
2023-03-13T20:16:59.312Z,99190.80
2023-03-13T20:22:05.355Z,99182.59
2023-03-13T20:27:10.782Z,99188.06
2023-03-13T20:32:16.233Z,99183.60
2023-03-13T20:37:21.818Z,99175.94
2023-03-13T20:42:27.381Z,99169.37
2023-03-13T20:47:32.893Z,99165.95
2023-03-13T20:52:38.474Z,99164.74
2023-03-13T20:57:43.861Z,99163.71
2023-03-13T21:02:50.124Z,99153.31
2023-03-13T21:07:55.464Z,99141.80
2023-03-13T21:13:00.929Z,99133.02
2023-03-13T21:18:06.471Z,99126.16
2023-03-13T21:23:11.868Z,99130.26
2023-03-13T21:28:17.224Z,99125.41
2023-03-13T21:33:22.767Z,99120.67
2023-03-13T21:38:28.124Z,99122.90
2023-03-13T21:43:33.451Z,99121.92
2023-03-13T21:48:40.721Z,99114.23
2023-03-13T21:53:46.147Z,99104.20
2023-03-13T21:58:51.806Z,99094.63
2023-03-13T22:03:57.177Z,99083.88
2023-03-13T22:09:03.818Z,99082.48
2023-03-13T22:14:09.164Z,99074.02
2023-03-13T22:19:17.353Z,99069.38
2023-03-13T22:24:22.808Z,99072.71
2023-03-13T22:29:30.684Z,99075.58
2023-03-13T22:34:36.526Z,99077.86
2023-03-13T22:39:42.026Z,99079.48
2023-03-13T22:44:47.538Z,99069.22
2023-03-13T22:49:53.754Z,99063.55
2023-03-13T22:54:59.894Z,99062.30
2023-03-13T23:00:09.120Z,99056.80
2023-03-13T23:05:14.734Z,99051.17
2023-03-13T23:10:20.642Z,99052.52
2023-03-13T23:15:26.591Z,99046.83
2023-03-13T23:20:35.906Z,99043.56
2023-03-13T23:25:41.383Z,99033.20
2023-03-13T23:30:46.775Z,99039.45
2023-03-13T23:35:52.335Z,99032.56
2023-03-13T23:40:57.888Z,99033.77
2023-03-13T23:46:04.194Z,99028.56
2023-03-13T23:51:10.274Z,99022.22
2023-03-13T23:56:15.603Z,99014.24
